sensor_id;sensor_type;location;lat;lon;timestamp;temperature;humidity
33831;DHT22;20137;48.834;8.732;2024-03-02T00:02:12;4.30;99.90
33831;DHT22;20137;48.834;8.732;2024-03-02T00:04:38;4.50;99.90
33831;DHT22;20137;48.834;8.732;2024-03-02T00:07:04;4.40;99.90
33831;DHT22;20137;48.834;8.732;2024-03-02T00:09:29;4.40;99.90
33831;DHT22;20137;48.834;8.732;2024-03-02T00:11:55;4.50;99.90
33831;DHT22;20137;48.834;8.732;2024-03-02T00:14:22;4.40;99.90
33831;DHT22;20137;48.834;8.732;2024-03-02T00:16:50;4.30;99.90
33831;DHT22;20137;48.834;8.732;2024-03-02T00:19:17;4.30;99.90
33831;DHT22;20137;48.834;8.732;2024-03-02T00:21:43;4.30;99.90
33831;DHT22;20137;48.834;8.732;2024-03-02T00:24:32;4.30;99.90
33831;DHT22;20137;48.834;8.732;2024-03-02T00:26:59;4.30;99.90
33831;DHT22;20137;48.834;8.732;2024-03-02T00:29:25;4.30;99.90
33831;DHT22;20137;48.834;8.732;2024-03-02T00:31:51;4.20;99.90
33831;DHT22;20137;48.834;8.732;2024-03-02T00:34:17;4.20;99.90
33831;DHT22;20137;48.834;8.732;2024-03-02T00:36:43;4.20;99.90
33831;DHT22;20137;48.834;8.732;2024-03-02T00:39:12;4.20;99.90
33831;DHT22;20137;48.834;8.732;2024-03-02T00:41:41;4.20;99.90
33831;DHT22;20137;48.834;8.732;2024-03-02T00:44:12;4.20;99.90
33831;DHT22;20137;48.834;8.732;2024-03-02T00:46:42;4.20;99.90
33831;DHT22;20137;48.834;8.732;2024-03-02T00:49:22;4.20;99.90
33831;DHT22;20137;48.834;8.732;2024-03-02T00:51:53;4.20;99.90
33831;DHT22;20137;48.834;8.732;2024-03-02T00:54:24;4.10;99.90
33831;DHT22;20137;48.834;8.732;2024-03-02T00:56:54;4.20;99.90
33831;DHT22;20137;48.834;8.732;2024-03-02T00:59:21;4.10;99.90
33831;DHT22;20137;48.834;8.732;2024-03-02T01:01:48;4.10;99.90
33831;DHT22;20137;48.834;8.732;2024-03-02T01:04:14;4.10;99.90
33831;DHT22;20137;48.834;8.732;2024-03-02T01:06:40;4.00;99.90
33831;DHT22;20137;48.834;8.732;2024-03-02T01:09:06;4.00;99.90
33831;DHT22;20137;48.834;8.732;2024-03-02T01:11:31;3.90;99.90
33831;DHT22;20137;48.834;8.732;2024-03-02T01:13:57;3.90;99.90
33831;DHT22;20137;48.834;8.732;2024-03-02T01:16:23;3.90;99.90
33831;DHT22;20137;48.834;8.732;2024-03-02T01:18:48;4.00;99.90
33831;DHT22;20137;48.834;8.732;2024-03-02T01:21:14;4.00;99.90
33831;DHT22;20137;48.834;8.732;2024-03-02T01:23:40;4.10;99.90
33831;DHT22;20137;48.834;8.732;2024-03-02T01:26:05;4.10;99.90
33831;DHT22;20137;48.834;8.732;2024-03-02T01:28:32;4.00;99.90
33831;DHT22;20137;48.834;8.732;2024-03-02T01:30:57;4.00;99.90
33831;DHT22;20137;48.834;8.732;2024-03-02T01:33:23;4.00;99.90
33831;DHT22;20137;48.834;8.732;2024-03-02T01:35:48;3.90;99.90
33831;DHT22;20137;48.834;8.732;2024-03-02T01:38:15;3.90;99.90
33831;DHT22;20137;48.834;8.732;2024-03-02T01:40:42;3.80;99.90
33831;DHT22;20137;48.834;8.732;2024-03-02T01:43:09;3.90;99.90
33831;DHT22;20137;48.834;8.732;2024-03-02T01:45:35;3.80;99.90
33831;DHT22;20137;48.834;8.732;2024-03-02T01:48:03;3.80;99.90
33831;DHT22;20137;48.834;8.732;2024-03-02T01:50:31;3.80;99.90
33831;DHT22;20137;48.834;8.732;2024-03-02T01:52:58;3.80;99.90
33831;DHT22;20137;48.834;8.732;2024-03-02T01:55:24;3.70;99.90
33831;DHT22;20137;48.834;8.732;2024-03-02T01:57:50;3.70;99.90
33831;DHT22;20137;48.834;8.732;2024-03-02T02:00:22;3.60;99.90
33831;DHT22;20137;48.834;8.732;2024-03-02T02:02:50;3.60;99.90
33831;DHT22;20137;48.834;8.732;2024-03-02T02:05:15;3.60;99.90
33831;DHT22;20137;48.834;8.732;2024-03-02T02:07:41;3.60;99.90
33831;DHT22;20137;48.834;8.732;2024-03-02T02:10:09;3.50;99.90
33831;DHT22;20137;48.834;8.732;2024-03-02T02:12:35;3.50;99.90
33831;DHT22;20137;48.834;8.732;2024-03-02T02:15:00;3.40;99.90
33831;DHT22;20137;48.834;8.732;2024-03-02T02:17:26;3.40;99.90
33831;DHT22;20137;48.834;8.732;2024-03-02T02:19:52;3.40;99.90
33831;DHT22;20137;48.834;8.732;2024-03-02T02:22:17;3.50;99.90
33831;DHT22;20137;48.834;8.732;2024-03-02T02:24:43;3.50;99.90
33831;DHT22;20137;48.834;8.732;2024-03-02T02:27:09;3.50;99.90
33831;DHT22;20137;48.834;8.732;2024-03-02T02:29:35;3.60;99.90
33831;DHT22;20137;48.834;8.732;2024-03-02T02:32:02;3.60;99.90
33831;DHT22;20137;48.834;8.732;2024-03-02T02:34:28;3.70;99.90
33831;DHT22;20137;48.834;8.732;2024-03-02T02:36:53;3.70;99.90
33831;DHT22;20137;48.834;8.732;2024-03-02T02:39:21;3.70;99.90
33831;DHT22;20137;48.834;8.732;2024-03-02T02:41:47;3.60;99.90
33831;DHT22;20137;48.834;8.732;2024-03-02T02:44:13;3.50;99.90
33831;DHT22;20137;48.834;8.732;2024-03-02T02:46:40;3.60;99.90
33831;DHT22;20137;48.834;8.732;2024-03-02T02:49:06;3.60;99.90
33831;DHT22;20137;48.834;8.732;2024-03-02T02:51:32;3.80;99.90
33831;DHT22;20137;48.834;8.732;2024-03-02T02:53:57;3.70;99.90
33831;DHT22;20137;48.834;8.732;2024-03-02T02:56:23;3.60;99.90
33831;DHT22;20137;48.834;8.732;2024-03-02T02:58:49;3.60;99.90
33831;DHT22;20137;48.834;8.732;2024-03-02T03:01:17;3.60;99.90
33831;DHT22;20137;48.834;8.732;2024-03-02T03:03:44;3.70;99.90
33831;DHT22;20137;48.834;8.732;2024-03-02T03:06:10;3.70;99.90
33831;DHT22;20137;48.834;8.732;2024-03-02T03:08:36;3.70;99.90
33831;DHT22;20137;48.834;8.732;2024-03-02T03:11:02;3.70;99.90
33831;DHT22;20137;48.834;8.732;2024-03-02T03:13:27;3.80;99.90
33831;DHT22;20137;48.834;8.732;2024-03-02T03:15:53;3.80;99.90
33831;DHT22;20137;48.834;8.732;2024-03-02T03:18:19;3.90;99.90
33831;DHT22;20137;48.834;8.732;2024-03-02T03:20:44;3.80;99.90
33831;DHT22;20137;48.834;8.732;2024-03-02T03:23:10;3.80;99.90
33831;DHT22;20137;48.834;8.732;2024-03-02T03:25:41;3.80;99.90
33831;DHT22;20137;48.834;8.732;2024-03-02T03:28:06;3.90;99.90
33831;DHT22;20137;48.834;8.732;2024-03-02T03:30:32;3.90;99.90
33831;DHT22;20137;48.834;8.732;2024-03-02T03:32:58;3.90;99.90
33831;DHT22;20137;48.834;8.732;2024-03-02T03:35:23;3.80;99.90
33831;DHT22;20137;48.834;8.732;2024-03-02T03:37:49;3.90;99.90
33831;DHT22;20137;48.834;8.732;2024-03-02T03:40:14;3.70;99.90
33831;DHT22;20137;48.834;8.732;2024-03-02T03:42:40;3.70;99.90
33831;DHT22;20137;48.834;8.732;2024-03-02T03:45:06;3.70;99.90
33831;DHT22;20137;48.834;8.732;2024-03-02T03:47:32;3.70;99.90
33831;DHT22;20137;48.834;8.732;2024-03-02T03:49:58;3.80;99.90
33831;DHT22;20137;48.834;8.732;2024-03-02T03:52:24;3.90;99.90
33831;DHT22;20137;48.834;8.732;2024-03-02T03:54:49;3.80;99.90
33831;DHT22;20137;48.834;8.732;2024-03-02T03:57:15;3.80;99.90
33831;DHT22;20137;48.834;8.732;2024-03-02T03:59:41;3.90;99.90
33831;DHT22;20137;48.834;8.732;2024-03-02T04:02:08;3.90;99.90
33831;DHT22;20137;48.834;8.732;2024-03-02T04:04:34;3.70;99.90
33831;DHT22;20137;48.834;8.732;2024-03-02T04:07:00;4.00;99.90
33831;DHT22;20137;48.834;8.732;2024-03-02T04:09:26;3.60;99.90
33831;DHT22;20137;48.834;8.732;2024-03-02T04:11:52;3.70;99.90
33831;DHT22;20137;48.834;8.732;2024-03-02T04:14:21;3.70;99.90
33831;DHT22;20137;48.834;8.732;2024-03-02T04:16:46;3.70;99.90
33831;DHT22;20137;48.834;8.732;2024-03-02T04:19:12;3.70;99.90
33831;DHT22;20137;48.834;8.732;2024-03-02T04:21:37;3.70;99.90
33831;DHT22;20137;48.834;8.732;2024-03-02T04:24:03;3.70;99.90
33831;DHT22;20137;48.834;8.732;2024-03-02T04:26:29;3.70;99.90
33831;DHT22;20137;48.834;8.732;2024-03-02T04:28:54;3.70;99.90
33831;DHT22;20137;48.834;8.732;2024-03-02T04:31:21;3.90;99.90
33831;DHT22;20137;48.834;8.732;2024-03-02T04:33:46;3.80;99.90
33831;DHT22;20137;48.834;8.732;2024-03-02T04:36:12;3.90;99.90
33831;DHT22;20137;48.834;8.732;2024-03-02T04:38:38;3.90;99.90
33831;DHT22;20137;48.834;8.732;2024-03-02T04:41:07;3.90;99.90
33831;DHT22;20137;48.834;8.732;2024-03-02T04:43:33;4.00;99.90
33831;DHT22;20137;48.834;8.732;2024-03-02T04:45:59;4.00;99.90
33831;DHT22;20137;48.834;8.732;2024-03-02T04:48:25;4.00;99.90
33831;DHT22;20137;48.834;8.732;2024-03-02T04:50:51;3.90;99.90
33831;DHT22;20137;48.834;8.732;2024-03-02T04:53:17;3.90;99.90
33831;DHT22;20137;48.834;8.732;2024-03-02T04:55:42;3.90;99.90
33831;DHT22;20137;48.834;8.732;2024-03-02T04:58:08;3.80;99.90
33831;DHT22;20137;48.834;8.732;2024-03-02T05:00:34;3.90;99.90
33831;DHT22;20137;48.834;8.732;2024-03-02T05:03:00;3.90;99.90
33831;DHT22;20137;48.834;8.732;2024-03-02T05:05:25;3.90;99.90
33831;DHT22;20137;48.834;8.732;2024-03-02T05:07:51;3.90;99.90
33831;DHT22;20137;48.834;8.732;2024-03-02T05:10:17;3.90;99.90
33831;DHT22;20137;48.834;8.732;2024-03-02T05:12:43;3.90;99.90
33831;DHT22;20137;48.834;8.732;2024-03-02T05:15:09;3.90;99.90
33831;DHT22;20137;48.834;8.732;2024-03-02T05:17:44;4.00;99.90
33831;DHT22;20137;48.834;8.732;2024-03-02T05:20:10;4.10;99.90
33831;DHT22;20137;48.834;8.732;2024-03-02T05:22:37;4.00;99.90
33831;DHT22;20137;48.834;8.732;2024-03-02T05:25:03;4.00;99.90
33831;DHT22;20137;48.834;8.732;2024-03-02T05:27:29;4.00;99.90
33831;DHT22;20137;48.834;8.732;2024-03-02T05:29:55;3.90;99.90
33831;DHT22;20137;48.834;8.732;2024-03-02T05:32:21;3.90;99.90
33831;DHT22;20137;48.834;8.732;2024-03-02T05:34:47;4.00;99.90
33831;DHT22;20137;48.834;8.732;2024-03-02T05:37:13;3.80;99.90
33831;DHT22;20137;48.834;8.732;2024-03-02T05:39:38;3.80;99.90
33831;DHT22;20137;48.834;8.732;2024-03-02T05:42:04;3.80;99.90
33831;DHT22;20137;48.834;8.732;2024-03-02T05:44:30;3.80;99.90
33831;DHT22;20137;48.834;8.732;2024-03-02T05:46:56;3.70;99.90
33831;DHT22;20137;48.834;8.732;2024-03-02T05:49:21;3.70;99.90
33831;DHT22;20137;48.834;8.732;2024-03-02T05:51:47;3.80;99.90
33831;DHT22;20137;48.834;8.732;2024-03-02T05:54:13;3.70;99.90
33831;DHT22;20137;48.834;8.732;2024-03-02T05:56:38;3.70;99.90
33831;DHT22;20137;48.834;8.732;2024-03-02T05:59:04;3.60;99.90
33831;DHT22;20137;48.834;8.732;2024-03-02T06:01:42;3.60;99.90
33831;DHT22;20137;48.834;8.732;2024-03-02T06:04:09;3.60;99.90
33831;DHT22;20137;48.834;8.732;2024-03-02T06:06:36;3.60;99.90
33831;DHT22;20137;48.834;8.732;2024-03-02T06:09:02;3.60;99.90
33831;DHT22;20137;48.834;8.732;2024-03-02T06:11:35;3.70;99.90
33831;DHT22;20137;48.834;8.732;2024-03-02T06:14:07;3.70;99.90
33831;DHT22;20137;48.834;8.732;2024-03-02T06:16:33;3.80;99.90
33831;DHT22;20137;48.834;8.732;2024-03-02T06:18:59;3.80;99.90
33831;DHT22;20137;48.834;8.732;2024-03-02T06:21:25;3.80;99.90
33831;DHT22;20137;48.834;8.732;2024-03-02T06:23:51;3.90;99.90
33831;DHT22;20137;48.834;8.732;2024-03-02T06:26:17;3.90;99.90
33831;DHT22;20137;48.834;8.732;2024-03-02T06:28:43;4.00;99.90
33831;DHT22;20137;48.834;8.732;2024-03-02T06:31:08;3.90;99.90
33831;DHT22;20137;48.834;8.732;2024-03-02T06:33:34;3.90;99.90
33831;DHT22;20137;48.834;8.732;2024-03-02T06:36:00;3.90;99.90
33831;DHT22;20137;48.834;8.732;2024-03-02T06:38:25;4.00;99.90
33831;DHT22;20137;48.834;8.732;2024-03-02T06:40:51;3.90;99.90
33831;DHT22;20137;48.834;8.732;2024-03-02T06:43:17;3.90;99.90
33831;DHT22;20137;48.834;8.732;2024-03-02T06:45:42;3.90;99.90
33831;DHT22;20137;48.834;8.732;2024-03-02T06:48:08;4.00;99.90
33831;DHT22;20137;48.834;8.732;2024-03-02T06:50:34;4.00;99.90
33831;DHT22;20137;48.834;8.732;2024-03-02T06:52:59;4.10;99.90
33831;DHT22;20137;48.834;8.732;2024-03-02T06:55:25;4.20;99.90
33831;DHT22;20137;48.834;8.732;2024-03-02T06:57:51;4.10;99.90
33831;DHT22;20137;48.834;8.732;2024-03-02T07:00:20;4.30;99.90
33831;DHT22;20137;48.834;8.732;2024-03-02T07:02:46;4.20;99.90
33831;DHT22;20137;48.834;8.732;2024-03-02T07:05:12;4.20;99.90
33831;DHT22;20137;48.834;8.732;2024-03-02T07:07:37;4.20;99.90
33831;DHT22;20137;48.834;8.732;2024-03-02T07:10:04;4.20;99.90
33831;DHT22;20137;48.834;8.732;2024-03-02T07:12:30;4.20;99.90
33831;DHT22;20137;48.834;8.732;2024-03-02T07:14:56;4.30;99.90
33831;DHT22;20137;48.834;8.732;2024-03-02T07:17:37;4.30;99.90
33831;DHT22;20137;48.834;8.732;2024-03-02T07:20:03;4.40;99.90
33831;DHT22;20137;48.834;8.732;2024-03-02T07:22:32;4.40;99.90
33831;DHT22;20137;48.834;8.732;2024-03-02T07:24:58;4.40;99.90
33831;DHT22;20137;48.834;8.732;2024-03-02T07:27:24;4.40;99.90
33831;DHT22;20137;48.834;8.732;2024-03-02T07:29:50;4.60;99.90
33831;DHT22;20137;48.834;8.732;2024-03-02T07:32:15;4.60;99.90
33831;DHT22;20137;48.834;8.732;2024-03-02T07:34:41;4.60;99.90
33831;DHT22;20137;48.834;8.732;2024-03-02T07:37:06;4.60;99.90
33831;DHT22;20137;48.834;8.732;2024-03-02T07:39:32;4.70;99.90
33831;DHT22;20137;48.834;8.732;2024-03-02T07:41:58;4.80;99.90
33831;DHT22;20137;48.834;8.732;2024-03-02T07:44:24;4.90;99.90
33831;DHT22;20137;48.834;8.732;2024-03-02T07:46:50;5.00;99.90
33831;DHT22;20137;48.834;8.732;2024-03-02T07:49:16;5.20;99.90
33831;DHT22;20137;48.834;8.732;2024-03-02T07:51:42;5.30;99.90
33831;DHT22;20137;48.834;8.732;2024-03-02T07:54:08;5.50;99.90
33831;DHT22;20137;48.834;8.732;2024-03-02T07:56:34;5.60;99.90
33831;DHT22;20137;48.834;8.732;2024-03-02T07:59:01;5.70;99.90
33831;DHT22;20137;48.834;8.732;2024-03-02T08:01:28;5.90;99.90
33831;DHT22;20137;48.834;8.732;2024-03-02T08:03:56;6.00;99.90
33831;DHT22;20137;48.834;8.732;2024-03-02T08:06:26;6.10;99.90
33831;DHT22;20137;48.834;8.732;2024-03-02T08:08:59;6.30;99.90
33831;DHT22;20137;48.834;8.732;2024-03-02T08:11:25;6.40;99.90
33831;DHT22;20137;48.834;8.732;2024-03-02T08:13:52;6.40;99.90
33831;DHT22;20137;48.834;8.732;2024-03-02T08:16:21;6.70;99.90
33831;DHT22;20137;48.834;8.732;2024-03-02T08:18:48;6.90;99.90
33831;DHT22;20137;48.834;8.732;2024-03-02T08:21:14;7.00;99.90
33831;DHT22;20137;48.834;8.732;2024-03-02T08:23:40;7.10;99.90
33831;DHT22;20137;48.834;8.732;2024-03-02T08:26:07;7.10;99.90
33831;DHT22;20137;48.834;8.732;2024-03-02T08:28:34;7.20;99.90
33831;DHT22;20137;48.834;8.732;2024-03-02T08:30:59;7.40;99.90
33831;DHT22;20137;48.834;8.732;2024-03-02T08:33:25;7.50;99.90
33831;DHT22;20137;48.834;8.732;2024-03-02T08:35:51;7.70;99.90
33831;DHT22;20137;48.834;8.732;2024-03-02T08:38:17;7.80;99.90
33831;DHT22;20137;48.834;8.732;2024-03-02T08:40:43;7.90;99.90
33831;DHT22;20137;48.834;8.732;2024-03-02T08:43:09;8.10;99.90
33831;DHT22;20137;48.834;8.732;2024-03-02T08:45:34;8.30;99.90
33831;DHT22;20137;48.834;8.732;2024-03-02T08:48:00;8.30;99.90
33831;DHT22;20137;48.834;8.732;2024-03-02T08:50:26;8.50;99.90
33831;DHT22;20137;48.834;8.732;2024-03-02T08:52:52;8.60;99.90
33831;DHT22;20137;48.834;8.732;2024-03-02T08:55:17;8.80;99.90
33831;DHT22;20137;48.834;8.732;2024-03-02T08:57:43;8.80;99.90
33831;DHT22;20137;48.834;8.732;2024-03-02T09:00:09;8.90;99.90
33831;DHT22;20137;48.834;8.732;2024-03-02T09:02:36;9.00;99.90
33831;DHT22;20137;48.834;8.732;2024-03-02T09:05:02;9.10;99.90
33831;DHT22;20137;48.834;8.732;2024-03-02T09:07:28;9.10;99.90
33831;DHT22;20137;48.834;8.732;2024-03-02T09:09:53;9.20;99.90
33831;DHT22;20137;48.834;8.732;2024-03-02T09:12:19;9.30;99.90
33831;DHT22;20137;48.834;8.732;2024-03-02T09:14:45;9.30;99.90
33831;DHT22;20137;48.834;8.732;2024-03-02T09:17:12;9.30;99.90
33831;DHT22;20137;48.834;8.732;2024-03-02T09:19:38;9.30;99.90
33831;DHT22;20137;48.834;8.732;2024-03-02T09:22:04;9.40;99.90
33831;DHT22;20137;48.834;8.732;2024-03-02T09:24:31;9.60;99.90
33831;DHT22;20137;48.834;8.732;2024-03-02T09:26:58;9.50;99.90
33831;DHT22;20137;48.834;8.732;2024-03-02T09:29:24;9.60;99.90
33831;DHT22;20137;48.834;8.732;2024-03-02T09:31:50;9.60;99.90
33831;DHT22;20137;48.834;8.732;2024-03-02T09:34:17;9.70;99.90
33831;DHT22;20137;48.834;8.732;2024-03-02T09:36:43;9.70;99.90
33831;DHT22;20137;48.834;8.732;2024-03-02T09:39:08;9.80;99.90
33831;DHT22;20137;48.834;8.732;2024-03-02T09:41:37;9.70;99.90
33831;DHT22;20137;48.834;8.732;2024-03-02T09:44:04;9.90;99.90
33831;DHT22;20137;48.834;8.732;2024-03-02T09:46:30;9.90;99.90
33831;DHT22;20137;48.834;8.732;2024-03-02T09:48:56;10.00;99.90
33831;DHT22;20137;48.834;8.732;2024-03-02T09:51:22;10.00;99.90
33831;DHT22;20137;48.834;8.732;2024-03-02T09:53:47;10.20;99.90
33831;DHT22;20137;48.834;8.732;2024-03-02T09:56:14;10.30;99.90
33831;DHT22;20137;48.834;8.732;2024-03-02T09:58:41;10.40;99.90
33831;DHT22;20137;48.834;8.732;2024-03-02T10:01:07;10.50;99.90
33831;DHT22;20137;48.834;8.732;2024-03-02T10:03:34;10.60;99.90
33831;DHT22;20137;48.834;8.732;2024-03-02T10:06:19;10.60;99.90
33831;DHT22;20137;48.834;8.732;2024-03-02T10:08:45;10.70;99.90
33831;DHT22;20137;48.834;8.732;2024-03-02T10:11:10;10.80;99.90
33831;DHT22;20137;48.834;8.732;2024-03-02T10:13:36;10.80;99.90
33831;DHT22;20137;48.834;8.732;2024-03-02T10:16:12;10.90;99.90
33831;DHT22;20137;48.834;8.732;2024-03-02T10:18:37;11.00;99.90
33831;DHT22;20137;48.834;8.732;2024-03-02T10:21:15;11.00;99.90
33831;DHT22;20137;48.834;8.732;2024-03-02T10:23:41;11.10;99.90
33831;DHT22;20137;48.834;8.732;2024-03-02T10:26:19;11.20;99.90
33831;DHT22;20137;48.834;8.732;2024-03-02T10:28:48;11.30;99.90
33831;DHT22;20137;48.834;8.732;2024-03-02T10:31:13;11.40;99.90
33831;DHT22;20137;48.834;8.732;2024-03-02T10:33:40;11.40;99.90
33831;DHT22;20137;48.834;8.732;2024-03-02T10:36:06;11.40;99.90
33831;DHT22;20137;48.834;8.732;2024-03-02T10:38:31;11.50;99.90
33831;DHT22;20137;48.834;8.732;2024-03-02T10:40:58;11.50;99.90
33831;DHT22;20137;48.834;8.732;2024-03-02T10:43:25;11.50;99.90
33831;DHT22;20137;48.834;8.732;2024-03-02T10:45:52;11.50;99.90
33831;DHT22;20137;48.834;8.732;2024-03-02T10:48:19;11.50;99.90
33831;DHT22;20137;48.834;8.732;2024-03-02T10:50:45;11.60;99.90
33831;DHT22;20137;48.834;8.732;2024-03-02T10:53:10;11.70;99.90
33831;DHT22;20137;48.834;8.732;2024-03-02T10:55:36;11.70;99.90
33831;DHT22;20137;48.834;8.732;2024-03-02T10:58:04;11.80;99.90
33831;DHT22;20137;48.834;8.732;2024-03-02T11:00:33;11.80;99.90
33831;DHT22;20137;48.834;8.732;2024-03-02T11:03:10;11.90;99.90
33831;DHT22;20137;48.834;8.732;2024-03-02T11:05:39;12.10;99.90
33831;DHT22;20137;48.834;8.732;2024-03-02T11:08:08;12.10;99.90
33831;DHT22;20137;48.834;8.732;2024-03-02T11:10:49;12.20;99.90
33831;DHT22;20137;48.834;8.732;2024-03-02T11:13:24;12.10;99.90
33831;DHT22;20137;48.834;8.732;2024-03-02T11:15:55;12.10;99.90
33831;DHT22;20137;48.834;8.732;2024-03-02T11:18:25;12.20;99.90
33831;DHT22;20137;48.834;8.732;2024-03-02T11:20:51;12.20;99.90
33831;DHT22;20137;48.834;8.732;2024-03-02T11:23:17;12.30;99.90
33831;DHT22;20137;48.834;8.732;2024-03-02T11:25:42;12.20;99.90
33831;DHT22;20137;48.834;8.732;2024-03-02T11:28:08;12.30;99.90
33831;DHT22;20137;48.834;8.732;2024-03-02T11:33:08;12.50;99.90
33831;DHT22;20137;48.834;8.732;2024-03-02T11:35:41;12.60;99.90
33831;DHT22;20137;48.834;8.732;2024-03-02T11:38:09;12.60;99.90
33831;DHT22;20137;48.834;8.732;2024-03-02T11:40:35;12.60;99.90
33831;DHT22;20137;48.834;8.732;2024-03-02T11:43:01;12.60;99.90
33831;DHT22;20137;48.834;8.732;2024-03-02T11:45:28;12.60;99.90
33831;DHT22;20137;48.834;8.732;2024-03-02T11:47:55;12.70;99.90
33831;DHT22;20137;48.834;8.732;2024-03-02T11:50:35;12.70;99.90
33831;DHT22;20137;48.834;8.732;2024-03-02T11:53:07;12.80;99.90
33831;DHT22;20137;48.834;8.732;2024-03-02T11:55:35;12.80;99.90
33831;DHT22;20137;48.834;8.732;2024-03-02T11:58:03;12.80;99.90
33831;DHT22;20137;48.834;8.732;2024-03-02T12:00:29;12.80;99.90
33831;DHT22;20137;48.834;8.732;2024-03-02T12:03:10;12.80;99.90
33831;DHT22;20137;48.834;8.732;2024-03-02T12:05:38;13.00;99.90
33831;DHT22;20137;48.834;8.732;2024-03-02T12:08:05;13.10;99.90
33831;DHT22;20137;48.834;8.732;2024-03-02T12:10:32;13.30;99.90
33831;DHT22;20137;48.834;8.732;2024-03-02T12:13:06;13.10;99.90
33831;DHT22;20137;48.834;8.732;2024-03-02T12:15:34;13.10;99.90
33831;DHT22;20137;48.834;8.732;2024-03-02T12:18:01;13.20;99.90
33831;DHT22;20137;48.834;8.732;2024-03-02T12:20:28;13.10;99.90
33831;DHT22;20137;48.834;8.732;2024-03-02T12:22:56;13.00;99.90
33831;DHT22;20137;48.834;8.732;2024-03-02T12:25:23;13.00;99.90
33831;DHT22;20137;48.834;8.732;2024-03-02T12:27:52;13.00;99.90
33831;DHT22;20137;48.834;8.732;2024-03-02T12:30:19;13.20;99.90
33831;DHT22;20137;48.834;8.732;2024-03-02T12:32:45;13.20;99.90
33831;DHT22;20137;48.834;8.732;2024-03-02T12:35:12;13.30;99.90
33831;DHT22;20137;48.834;8.732;2024-03-02T12:37:48;13.30;99.90
33831;DHT22;20137;48.834;8.732;2024-03-02T12:40:15;13.40;99.90
33831;DHT22;20137;48.834;8.732;2024-03-02T12:42:44;13.60;99.90
33831;DHT22;20137;48.834;8.732;2024-03-02T12:45:10;13.50;99.90
33831;DHT22;20137;48.834;8.732;2024-03-02T12:47:36;13.40;99.90
33831;DHT22;20137;48.834;8.732;2024-03-02T12:50:05;13.40;99.90
33831;DHT22;20137;48.834;8.732;2024-03-02T12:52:32;13.50;99.90
33831;DHT22;20137;48.834;8.732;2024-03-02T12:54:59;13.60;99.90
33831;DHT22;20137;48.834;8.732;2024-03-02T12:57:26;13.60;99.90
33831;DHT22;20137;48.834;8.732;2024-03-02T12:59:59;13.50;99.90
33831;DHT22;20137;48.834;8.732;2024-03-02T13:02:28;13.40;99.90
33831;DHT22;20137;48.834;8.732;2024-03-02T13:04:54;13.50;99.90
33831;DHT22;20137;48.834;8.732;2024-03-02T13:07:20;13.50;99.90
33831;DHT22;20137;48.834;8.732;2024-03-02T13:09:49;13.40;99.90
33831;DHT22;20137;48.834;8.732;2024-03-02T13:12:16;13.30;99.90
33831;DHT22;20137;48.834;8.732;2024-03-02T13:14:42;13.30;99.90
33831;DHT22;20137;48.834;8.732;2024-03-02T13:17:10;13.10;99.90
33831;DHT22;20137;48.834;8.732;2024-03-02T13:19:50;13.20;99.90
33831;DHT22;20137;48.834;8.732;2024-03-02T13:22:16;13.10;99.90
33831;DHT22;20137;48.834;8.732;2024-03-02T13:24:41;13.20;99.90
33831;DHT22;20137;48.834;8.732;2024-03-02T13:27:08;13.30;99.90
33831;DHT22;20137;48.834;8.732;2024-03-02T13:29:33;13.50;99.90
33831;DHT22;20137;48.834;8.732;2024-03-02T13:31:59;13.60;99.90
33831;DHT22;20137;48.834;8.732;2024-03-02T13:34:25;13.70;99.90
33831;DHT22;20137;48.834;8.732;2024-03-02T13:36:50;13.70;99.90
33831;DHT22;20137;48.834;8.732;2024-03-02T13:39:16;13.60;99.90
33831;DHT22;20137;48.834;8.732;2024-03-02T13:41:42;13.60;99.90
33831;DHT22;20137;48.834;8.732;2024-03-02T13:44:10;13.60;99.90
33831;DHT22;20137;48.834;8.732;2024-03-02T13:46:35;13.60;99.90
33831;DHT22;20137;48.834;8.732;2024-03-02T13:49:01;13.70;99.90
33831;DHT22;20137;48.834;8.732;2024-03-02T13:51:27;13.60;99.90
33831;DHT22;20137;48.834;8.732;2024-03-02T13:53:52;13.50;99.90
33831;DHT22;20137;48.834;8.732;2024-03-02T13:56:18;13.40;99.90
33831;DHT22;20137;48.834;8.732;2024-03-02T13:58:44;13.40;99.90
33831;DHT22;20137;48.834;8.732;2024-03-02T14:01:11;13.40;99.90
33831;DHT22;20137;48.834;8.732;2024-03-02T14:03:37;13.50;99.90
33831;DHT22;20137;48.834;8.732;2024-03-02T14:06:03;13.60;99.90
33831;DHT22;20137;48.834;8.732;2024-03-02T14:08:29;13.70;99.90
33831;DHT22;20137;48.834;8.732;2024-03-02T14:10:55;13.80;99.90
33831;DHT22;20137;48.834;8.732;2024-03-02T14:13:23;13.90;99.90
33831;DHT22;20137;48.834;8.732;2024-03-02T14:15:49;14.00;99.90
33831;DHT22;20137;48.834;8.732;2024-03-02T14:18:15;13.90;99.90
33831;DHT22;20137;48.834;8.732;2024-03-02T14:20:40;13.80;99.90
33831;DHT22;20137;48.834;8.732;2024-03-02T14:23:07;13.80;99.90
33831;DHT22;20137;48.834;8.732;2024-03-02T14:25:35;13.80;99.90
33831;DHT22;20137;48.834;8.732;2024-03-02T14:28:01;13.70;99.90
33831;DHT22;20137;48.834;8.732;2024-03-02T14:30:26;13.50;99.90
33831;DHT22;20137;48.834;8.732;2024-03-02T14:32:52;13.40;99.90
33831;DHT22;20137;48.834;8.732;2024-03-02T14:35:18;13.40;99.90
33831;DHT22;20137;48.834;8.732;2024-03-02T14:37:44;13.40;99.90
33831;DHT22;20137;48.834;8.732;2024-03-02T14:40:10;13.50;99.90
33831;DHT22;20137;48.834;8.732;2024-03-02T14:42:36;13.40;99.90
33831;DHT22;20137;48.834;8.732;2024-03-02T14:45:02;13.40;99.90
33831;DHT22;20137;48.834;8.732;2024-03-02T14:47:31;13.30;99.90
33831;DHT22;20137;48.834;8.732;2024-03-02T14:49:58;13.20;99.90
33831;DHT22;20137;48.834;8.732;2024-03-02T14:52:23;13.10;99.90
33831;DHT22;20137;48.834;8.732;2024-03-02T14:54:49;12.90;99.90
33831;DHT22;20137;48.834;8.732;2024-03-02T14:57:15;12.80;99.90
33831;DHT22;20137;48.834;8.732;2024-03-02T14:59:40;12.80;99.90
33831;DHT22;20137;48.834;8.732;2024-03-02T15:02:08;12.70;99.90
33831;DHT22;20137;48.834;8.732;2024-03-02T15:04:33;12.60;99.90
33831;DHT22;20137;48.834;8.732;2024-03-02T15:06:59;12.50;99.90
33831;DHT22;20137;48.834;8.732;2024-03-02T15:09:25;12.30;99.90
33831;DHT22;20137;48.834;8.732;2024-03-02T15:11:50;12.20;99.90
33831;DHT22;20137;48.834;8.732;2024-03-02T15:14:16;12.10;99.90
33831;DHT22;20137;48.834;8.732;2024-03-02T15:16:42;12.00;99.90
33831;DHT22;20137;48.834;8.732;2024-03-02T15:19:08;12.00;99.90
33831;DHT22;20137;48.834;8.732;2024-03-02T15:21:33;12.00;99.90
33831;DHT22;20137;48.834;8.732;2024-03-02T15:23:59;11.90;99.90
33831;DHT22;20137;48.834;8.732;2024-03-02T15:26:25;11.90;99.90
33831;DHT22;20137;48.834;8.732;2024-03-02T15:28:51;11.90;99.90
33831;DHT22;20137;48.834;8.732;2024-03-02T15:31:18;11.90;99.90
33831;DHT22;20137;48.834;8.732;2024-03-02T15:33:44;11.90;99.90
33831;DHT22;20137;48.834;8.732;2024-03-02T15:36:10;11.90;99.90
33831;DHT22;20137;48.834;8.732;2024-03-02T15:38:35;11.90;99.90
33831;DHT22;20137;48.834;8.732;2024-03-02T15:41:03;11.90;99.90